Time;durP1;ratioP1;P1;durP2;ratioP2;P2;SDS_P1;SDS_P2;PMS_P1;PMS_P2;Temp;Humidity;BMP_temperature;BMP_pressure;BME280_temperature;BME280_humidity;BME280_pressure;Samples;Min_cycle;Max_cycle;Signal;HPM_P1;HPM_P2
2021/11/23 00:03:46;;;;;;;11.15;6.35;;;1.00;99.90;;;;;;6730296;88;20257;-80
2021/11/23 00:13:47;;;;;;;13.82;7.25;;;1.00;99.90;;;;;;6733218;88;20183;-80
2021/11/23 00:23:47;;;;;;;12.25;6.50;;;0.80;99.90;;;;;;6732891;88;20202;-79
2021/11/23 00:33:48;;;;;;;13.80;7.68;;;0.90;99.90;;;;;;6733918;88;20522;-80
2021/11/23 00:43:48;;;;;;;14.65;7.57;;;0.50;99.90;;;;;;6733968;88;20190;-81
2021/11/23 00:53:49;;;;;;;15.75;7.65;;;0.50;99.90;;;;;;6733544;88;20698;-80
2021/11/23 01:03:50;;;;;;;15.85;7.50;;;0.40;99.90;;;;;;6732516;88;21152;-79
2021/11/23 01:13:50;;;;;;;13.60;7.07;;;0.40;99.90;;;;;;6733253;88;20178;-81
2021/11/23 01:23:53;;;;;;;14.05;7.28;;;0.40;99.90;;;;;;6728774;88;20227;-80
2021/11/23 01:33:54;;;;;;;15.95;7.05;;;0.40;99.90;;;;;;6732242;88;21219;-79
2021/11/23 01:43:54;;;;;;;13.27;7.50;;;0.30;99.90;;;;;;6732137;88;20241;-80
2021/11/23 01:53:55;;;;;;;15.23;7.62;;;0.40;99.90;;;;;;6732809;88;20383;-80
2021/11/23 02:03:57;;;;;;;16.37;7.72;;;0.20;99.90;;;;;;6732695;88;20750;-80
2021/11/23 02:13:58;;;;;;;18.05;8.48;;;0.20;99.90;;;;;;6732965;88;20178;-80
2021/11/23 02:24:00;;;;;;;16.45;8.57;;;0.10;99.90;;;;;;6732911;88;20233;-80
2021/11/23 02:34:01;;;;;;;17.02;8.57;;;0.00;99.90;;;;;;6732330;88;20170;-80
2021/11/23 02:54:32;;;;;;;17.10;8.05;;;0.00;99.90;;;;;;6710943;78;20183;-77
2021/11/23 03:04:33;;;;;;;17.33;8.18;;;-0.10;99.90;;;;;;6722381;88;21217;-77
2021/11/23 03:14:33;;;;;;;14.23;6.68;;;0.00;99.90;;;;;;6701732;88;20197;-76
2021/11/23 03:24:34;;;;;;;16.25;7.87;;;0.00;99.90;;;;;;6701630;88;20166;-77
2021/11/23 03:34:37;;;;;;;17.70;8.23;;;-0.30;99.90;;;;;;6684799;88;20156;-77
2021/11/23 03:44:38;;;;;;;16.60;8.10;;;-0.50;99.90;;;;;;6671909;88;20215;-77
2021/11/23 03:54:39;;;;;;;20.23;8.80;;;-0.50;99.90;;;;;;6664039;89;20840;-77
2021/11/23 04:04:39;;;;;;;16.65;8.32;;;-0.50;99.90;;;;;;6649861;89;21248;-77
2021/11/23 04:14:41;;;;;;;15.55;7.05;;;-0.50;99.90;;;;;;6660850;89;20181;-76
2021/11/23 04:24:41;;;;;;;20.10;8.82;;;-0.50;99.90;;;;;;6664458;89;20188;-76
2021/11/23 04:34:42;;;;;;;25.35;9.23;;;-0.70;99.90;;;;;;6692683;88;20173;-76
2021/11/23 04:44:42;;;;;;;23.20;9.15;;;-0.70;99.90;;;;;;6700416;88;20172;-77
2021/11/23 04:54:44;;;;;;;22.77;9.70;;;-0.50;99.90;;;;;;6680951;89;20191;-77
2021/11/23 05:04:46;;;;;;;25.62;9.85;;;-0.60;99.90;;;;;;6680737;89;21146;-76
2021/11/23 05:14:47;;;;;;;29.02;10.65;;;-0.80;99.90;;;;;;6680497;89;20963;-76
2021/11/23 05:24:47;;;;;;;24.23;10.60;;;-0.70;99.90;;;;;;6677863;89;20181;-76
2021/11/23 05:34:48;;;;;;;26.55;10.00;;;-0.60;99.90;;;;;;6663593;89;20174;-78
2021/11/23 05:44:48;;;;;;;20.40;9.27;;;-0.40;99.90;;;;;;6691994;88;20226;-76
2021/11/23 05:54:50;;;;;;;29.27;11.15;;;-0.40;99.90;;;;;;6697333;88;20167;-77
2021/11/23 06:04:50;;;;;;;25.20;10.57;;;-0.30;99.90;;;;;;6697060;88;20180;-78
2021/11/23 06:14:51;;;;;;;21.20;10.15;;;0.10;99.90;;;;;;6697252;88;20187;-77
2021/11/23 06:24:52;;;;;;;20.20;8.15;;;0.10;99.90;;;;;;6709607;88;20883;-76
2021/11/23 06:34:54;;;;;;;21.27;9.73;;;0.20;99.90;;;;;;6715551;88;20889;-77
2021/11/23 06:44:54;;;;;;;22.15;9.80;;;0.20;99.90;;;;;;6716083;88;20196;-77
2021/11/23 06:54:55;;;;;;;23.05;10.38;;;0.30;99.90;;;;;;6715902;88;20155;-76
2021/11/23 07:04:55;;;;;;;21.65;9.68;;;0.30;99.90;;;;;;6715535;88;20173;-77
2021/11/23 07:14:56;;;;;;;21.98;9.82;;;0.50;99.90;;;;;;6715230;88;20181;-77
2021/11/23 07:24:56;;;;;;;23.77;10.63;;;0.70;99.90;;;;;;6713814;88;20167;-79
2021/11/23 07:34:57;;;;;;;21.45;10.15;;;0.60;99.90;;;;;;6714077;88;20228;-77
2021/11/23 07:44:57;;;;;;;20.33;9.63;;;0.80;99.90;;;;;;6716022;88;20171;-78
2021/11/23 07:54:59;;;;;;;20.67;10.57;;;0.90;99.90;;;;;;6717835;88;20170;-76
2021/11/23 08:04:59;;;;;;;22.95;10.00;;;1.00;99.90;;;;;;6716335;88;20415;-79
2021/11/23 08:15:00;;;;;;;23.15;11.23;;;1.10;99.90;;;;;;6709037;88;20170;-79
2021/11/23 08:25:01;;;;;;;21.27;10.05;;;1.40;99.90;;;;;;6714098;88;20827;-81
2021/11/23 08:35:02;;;;;;;25.55;10.82;;;1.80;99.90;;;;;;6696830;88;20172;-81
2021/11/23 08:45:05;;;;;;;22.73;10.70;;;2.00;99.90;;;;;;6697503;88;20267;-81
2021/11/23 08:55:06;;;;;;;23.02;10.95;;;2.00;99.90;;;;;;6697716;88;20176;-81
2021/11/23 09:05:08;;;;;;;26.27;11.57;;;2.40;99.90;;;;;;6663145;89;20291;-81
2021/11/23 09:15:09;;;;;;;24.15;11.12;;;2.50;99.90;;;;;;6613562;89;20837;-80
2021/11/23 09:25:12;;;;;;;23.08;11.18;;;2.70;99.90;;;;;;6613221;89;20842;-79
2021/11/23 09:35:13;;;;;;;20.48;11.20;;;3.10;99.90;;;;;;6652545;89;20181;-82
2021/11/23 09:45:16;;;;;;;24.05;10.32;;;3.50;99.90;;;;;;6704620;88;20234;-80
2021/11/23 09:55:17;;;;;;;19.87;10.50;;;3.60;99.90;;;;;;6715714;88;20306;-80
2021/11/23 10:05:18;;;;;;;23.08;10.98;;;3.60;99.90;;;;;;6714892;88;20893;-80
2021/11/23 10:15:24;;;;;;;27.40;13.90;;;3.80;99.90;;;;;;6715377;88;20284;-80
2021/11/23 10:25:29;;;;;;;26.75;11.50;;;4.00;99.90;;;;;;6697346;88;20903;-81
2021/11/23 10:35:30;;;;;;;21.33;10.43;;;4.30;99.90;;;;;;6698235;88;20811;-81
2021/11/23 10:45:46;;;;;;;22.35;11.05;;;4.80;99.90;;;;;;6697874;88;20241;-80
2021/11/23 10:55:46;;;;;;;20.77;10.57;;;5.10;99.90;;;;;;6677899;88;20247;-80
2021/11/23 11:05:48;;;;;;;23.92;10.63;;;5.40;99.90;;;;;;6696613;88;20212;-81
2021/11/23 11:15:52;;;;;;;21.25;10.90;;;5.70;99.90;;;;;;6697753;88;20198;-80
2021/11/23 11:26:03;;;;;;;19.37;9.43;;;6.00;99.90;;;;;;6697992;88;20163;-79
2021/11/23 11:36:04;;;;;;;24.45;9.80;;;6.70;99.90;;;;;;6687179;88;20931;-81
2021/11/23 11:46:06;;;;;;;20.40;9.95;;;6.60;99.90;;;;;;6679836;89;20222;-80
2021/11/23 11:56:08;;;;;;;21.60;10.00;;;7.00;99.90;;;;;;6695044;88;20246;-78
2021/11/23 12:06:08;;;;;;;24.02;9.88;;;6.50;99.90;;;;;;6708782;88;21028;-80
2021/11/23 12:16:16;;;;;;;22.00;10.52;;;6.30;99.90;;;;;;6708864;88;20211;-79
2021/11/23 12:26:18;;;;;;;21.37;10.02;;;6.70;99.90;;;;;;6708093;88;20245;-80
2021/11/23 12:36:23;;;;;;;25.17;10.43;;;6.90;99.90;;;;;;6708250;88;20212;-79
2021/11/23 12:46:26;;;;;;;16.92;9.10;;;7.30;99.90;;;;;;6706241;88;20217;-79
2021/11/23 12:56:50;;;;;;;16.62;8.43;;;7.30;99.90;;;;;;6702690;88;20749;-81
2021/11/23 13:07:04;;;;;;;17.58;9.07;;;7.20;99.90;;;;;;6694331;89;20272;-81
2021/11/23 13:17:04;;;;;;;22.08;10.25;;;7.20;99.90;;;;;;6695565;88;20326;-80
2021/11/23 13:27:05;;;;;;;31.12;12.85;;;7.20;99.90;;;;;;6695266;88;20203;-83
2021/11/23 13:37:06;;;;;;;22.23;9.75;;;6.90;99.90;;;;;;6694446;89;20178;-79
2021/11/23 13:47:17;;;;;;;18.30;9.13;;;6.90;99.90;;;;;;6691774;89;20186;-80
2021/11/23 13:57:27;;;;;;;17.12;9.55;;;6.90;99.90;;;;;;6691055;89;20379;-79
2021/11/23 14:07:27;;;;;;;17.98;9.63;;;6.80;99.90;;;;;;6690396;89;20679;-81
2021/11/23 14:18:05;;;;;;;20.57;9.33;;;6.80;99.90;;;;;;6689665;89;20256;-80
2021/11/23 14:28:08;;;;;;;22.60;10.10;;;6.60;99.90;;;;;;6688665;89;20521;-81
2021/11/23 14:38:08;;;;;;;20.25;9.88;;;6.50;99.90;;;;;;6689670;89;20303;-80
2021/11/23 14:48:09;;;;;;;18.17;9.23;;;6.60;99.90;;;;;;6690450;89;20211;-80
2021/11/23 14:58:10;;;;;;;15.20;8.83;;;6.70;99.90;;;;;;6689855;89;20202;-80
2021/11/23 15:08:12;;;;;;;20.08;9.00;;;6.50;99.90;;;;;;6692546;89;20573;-80
2021/11/23 15:18:14;;;;;;;19.77;10.05;;;6.60;99.90;;;;;;6691567;89;20502;-80
2021/11/23 15:28:15;;;;;;;32.42;11.75;;;6.30;99.90;;;;;;6694082;88;20246;-80
2021/11/23 15:38:16;;;;;;;24.63;10.45;;;6.30;99.90;;;;;;6696219;88;20348;-79
2021/11/23 15:48:17;;;;;;;20.50;10.07;;;6.00;99.90;;;;;;6707650;88;20219;-79
2021/11/23 15:58:17;;;;;;;21.48;10.20;;;6.10;99.90;;;;;;6710260;88;20187;-78
2021/11/23 16:08:18;;;;;;;25.55;10.45;;;6.20;99.90;;;;;;6712941;88;20189;-79
2021/11/23 16:18:19;;;;;;;24.92;9.88;;;6.30;99.90;;;;;;6714167;88;20182;-80
2021/11/23 16:28:20;;;;;;;26.90;10.98;;;6.20;99.90;;;;;;6713792;88;20163;-79
2021/11/23 16:38:21;;;;;;;27.33;11.60;;;6.10;99.90;;;;;;6695040;89;20321;-78
2021/11/23 16:48:22;;;;;;;28.30;11.20;;;5.90;99.90;;;;;;6694181;89;20374;-80
2021/11/23 16:58:22;;;;;;;25.77;11.05;;;5.90;99.90;;;;;;6693136;89;20350;-79
2021/11/23 17:08:24;;;;;;;22.65;9.70;;;5.60;99.90;;;;;;6693675;88;20207;-78
2021/11/23 17:18:25;;;;;;;22.85;10.43;;;5.80;99.90;;;;;;6700980;88;20190;-79
2021/11/23 17:28:26;;;;;;;24.17;10.27;;;5.70;99.90;;;;;;6710269;88;20158;-78
2021/11/23 17:38:27;;;;;;;23.30;10.68;;;5.70;99.90;;;;;;6706165;88;20735;-77
2021/11/23 17:48:27;;;;;;;22.60;10.20;;;5.60;99.90;;;;;;6712144;88;20633;-77
2021/11/23 17:58:29;;;;;;;22.95;10.40;;;5.70;99.90;;;;;;6704303;88;20311;-78
2021/11/23 18:08:29;;;;;;;22.85;9.90;;;5.60;99.90;;;;;;6713780;88;20199;-79
2021/11/23 18:18:30;;;;;;;25.93;11.10;;;5.80;99.90;;;;;;6715811;88;20220;-78
2021/11/23 18:28:31;;;;;;;25.27;11.77;;;5.40;99.90;;;;;;6702689;88;21108;-77
2021/11/23 18:38:33;;;;;;;29.12;12.13;;;5.40;99.90;;;;;;6698711;88;20210;-77
2021/11/23 18:48:34;;;;;;;33.60;12.88;;;5.30;99.90;;;;;;6693924;88;20199;-77
2021/11/23 18:58:34;;;;;;;33.15;13.52;;;5.30;99.90;;;;;;6694822;89;20204;-77
2021/11/23 19:08:35;;;;;;;32.58;12.68;;;5.20;99.90;;;;;;6694086;89;20242;-77
2021/11/23 19:18:38;;;;;;;35.40;11.80;;;5.10;99.90;;;;;;6689919;89;20288;-77
2021/11/23 19:28:39;;;;;;;31.70;12.75;;;5.30;99.90;;;;;;6700266;88;20674;-78
2021/11/23 19:38:39;;;;;;;37.40;12.82;;;5.30;99.90;;;;;;6696691;88;20211;-78
2021/11/23 19:48:40;;;;;;;33.75;12.73;;;5.30;99.90;;;;;;6694824;88;20199;-78
2021/11/23 19:58:40;;;;;;;34.88;12.30;;;5.40;99.90;;;;;;6706948;88;20325;-78
2021/11/23 20:08:42;;;;;;;36.17;13.80;;;5.30;99.90;;;;;;6705973;88;20667;-78
2021/11/23 20:18:43;;;;;;;34.97;12.93;;;5.20;99.90;;;;;;6695407;88;20277;-77
2021/11/23 20:28:46;;;;;;;36.33;14.25;;;5.40;99.90;;;;;;6698792;88;20215;-77
2021/11/23 20:38:46;;;;;;;37.28;14.20;;;5.50;99.90;;;;;;6693530;88;20982;-77
2021/11/23 20:48:47;;;;;;;29.87;12.85;;;5.20;99.90;;;;;;6693988;88;20244;-78
2021/11/23 20:58:48;;;;;;;34.53;14.43;;;5.30;99.90;;;;;;6697828;88;20212;-78
2021/11/23 21:08:48;;;;;;;33.33;14.48;;;5.20;99.90;;;;;;6697335;88;20222;-78
2021/11/23 21:18:50;;;;;;;36.72;14.15;;;5.30;99.90;;;;;;6697914;88;20195;-78
2021/11/23 21:28:53;;;;;;;34.08;14.77;;;5.50;99.90;;;;;;6698027;88;20516;-79
2021/11/23 21:38:56;;;;;;;38.60;15.38;;;5.20;99.90;;;;;;6701324;88;20339;-79
2021/11/23 21:48:57;;;;;;;38.50;15.60;;;5.50;99.90;;;;;;6699578;88;20649;-78
2021/11/23 21:58:58;;;;;;;42.30;15.43;;;5.40;99.90;;;;;;6697925;88;20199;-78
2021/11/23 22:08:59;;;;;;;39.63;15.77;;;5.40;99.90;;;;;;6702497;88;20659;-78
2021/11/23 22:19:00;;;;;;;37.80;14.27;;;5.10;99.90;;;;;;6703124;88;20563;-80
2021/11/23 22:29:00;;;;;;;37.40;14.52;;;5.10;99.90;;;;;;6702670;88;21162;-79
2021/11/23 22:39:01;;;;;;;36.87;14.93;;;5.30;99.90;;;;;;6692584;88;20275;-78
2021/11/23 22:49:01;;;;;;;36.53;14.10;;;5.20;99.90;;;;;;6697933;88;20985;-79
2021/11/23 22:59:03;;;;;;;35.25;13.95;;;5.30;99.90;;;;;;6698766;88;20257;-78
2021/11/23 23:09:03;;;;;;;37.55;14.77;;;5.40;99.90;;;;;;6699016;88;20234;-78
2021/11/23 23:19:04;;;;;;;34.70;14.35;;;5.40;99.90;;;;;;6688267;89;20184;-78
2021/11/23 23:29:05;;;;;;;37.88;15.38;;;5.30;99.90;;;;;;6693970;88;20266;-78
2021/11/23 23:39:06;;;;;;;36.10;14.13;;;5.20;99.90;;;;;;6702328;88;20260;-79
2021/11/23 23:49:06;;;;;;;36.30;15.15;;;5.20;99.90;;;;;;6702500;88;20208;-79
2021/11/23 23:59:07;;;;;;;37.75;14.43;;;5.20;99.90;;;;;;6703379;88;20725;-79
